Time;durP1;ratioP1;P1;durP2;ratioP2;P2;SDS_P1;SDS_P2;PMS_P1;PMS_P2;Temp;Humidity;BMP_temperature;BMP_pressure;BME280_temperature;BME280_humidity;BME280_pressure;Samples;Min_cycle;Max_cycle;Signal;HPM_P1;HPM_P2
2023/03/17 00:00:18;;;;;;;1999.90;999.90;;;12.60;99.90;;;;;;5014948;28;20493;-72
2023/03/17 00:02:48;;;;;;;1999.90;999.90;;;12.60;99.90;;;;;;5015321;28;20036;-79
2023/03/17 00:05:22;;;;;;;1999.90;999.90;;;12.70;99.90;;;;;;5015052;28;20515;-79
2023/03/17 00:07:49;;;;;;;1999.90;999.90;;;12.70;99.90;;;;;;5014839;28;20014;-72
2023/03/17 00:10:24;;;;;;;1999.90;999.90;;;12.70;99.90;;;;;;5014338;28;20083;-72
2023/03/17 00:12:52;;;;;;;1999.90;999.90;;;12.60;99.90;;;;;;5013955;28;20029;-76
2023/03/17 00:15:19;;;;;;;1999.90;999.90;;;12.70;99.90;;;;;;5003138;28;20037;-73
2023/03/17 00:17:46;;;;;;;1999.90;999.90;;;12.60;99.90;;;;;;5014454;28;20109;-72
2023/03/17 00:20:22;;;;;;;1999.90;999.90;;;12.70;99.90;;;;;;5014766;28;20033;-79
2023/03/17 00:22:48;;;;;;;1999.90;999.90;;;12.70;99.90;;;;;;5014485;28;20136;-72
2023/03/17 00:25:23;;;;;;;1999.90;999.90;;;12.70;99.90;;;;;;5014503;28;20021;-79
2023/03/17 00:27:49;;;;;;;1999.90;999.90;;;12.70;99.90;;;;;;5014593;28;20018;-72
2023/03/17 00:30:16;;;;;;;1999.90;999.90;;;12.60;99.90;;;;;;5014427;28;20022;-79
2023/03/17 00:32:44;;;;;;;1999.90;999.90;;;12.60;99.90;;;;;;5014458;28;20026;-79
2023/03/17 00:35:18;;;;;;;1999.90;999.90;;;12.50;99.90;;;;;;5014404;28;20401;-80
2023/03/17 00:37:45;;;;;;;1999.90;999.90;;;12.40;99.90;;;;;;5014015;28;20038;-73
2023/03/17 00:40:37;;;;;;;1999.90;999.90;;;12.40;99.90;;;;;;5017612;28;20021;-73
2023/03/17 00:43:03;;;;;;;1999.90;999.90;;;12.30;99.90;;;;;;5032911;28;20076;-79
2023/03/17 00:45:28;;;;;;;1999.90;999.90;;;12.30;99.90;;;;;;5030615;28;20057;-79
2023/03/17 00:47:55;;;;;;;1999.90;999.90;;;12.30;99.90;;;;;;5013899;28;20054;-79
2023/03/17 00:50:26;;;;;;;1999.90;999.90;;;12.30;99.90;;;;;;5013993;28;20034;-72
2023/03/17 00:52:53;;;;;;;1999.90;999.90;;;12.30;99.90;;;;;;5013867;28;20065;-72
2023/03/17 00:55:21;;;;;;;1999.90;999.90;;;12.20;99.90;;;;;;5013862;28;20040;-79
2023/03/17 00:57:48;;;;;;;1999.90;999.90;;;12.10;99.90;;;;;;5013793;28;20040;-79
2023/03/17 01:00:16;;;;;;;1999.90;999.90;;;12.00;99.90;;;;;;5013607;28;20037;-78
2023/03/17 01:02:43;;;;;;;1999.90;999.90;;;11.90;99.90;;;;;;5013707;28;20095;-73
2023/03/17 01:05:09;;;;;;;1999.90;999.90;;;11.80;99.90;;;;;;5013790;28;20026;-73
2023/03/17 01:07:36;;;;;;;1999.90;999.90;;;11.80;99.90;;;;;;5012892;28;20072;-73
2023/03/17 01:10:01;;;;;;;1999.90;999.90;;;11.90;99.90;;;;;;5013603;28;20377;-79
2023/03/17 01:12:28;;;;;;;1999.90;999.90;;;11.90;99.90;;;;;;5013591;28;20036;-73
2023/03/17 01:14:54;;;;;;;1999.90;999.90;;;12.00;99.90;;;;;;5001494;28;20028;-79
2023/03/17 01:17:20;;;;;;;1999.90;999.90;;;12.10;99.90;;;;;;5012875;28;20111;-79
2023/03/17 01:19:46;;;;;;;1999.90;999.90;;;12.10;99.90;;;;;;5013757;28;20508;-79
2023/03/17 01:22:12;;;;;;;1999.90;999.90;;;12.10;99.90;;;;;;5013467;28;20381;-80
2023/03/17 01:24:38;;;;;;;1999.90;999.90;;;12.00;99.90;;;;;;5013322;28;20022;-73
2023/03/17 01:27:05;;;;;;;1999.90;999.90;;;12.00;99.90;;;;;;5012019;28;20025;-72
2023/03/17 01:29:32;;;;;;;1999.90;999.90;;;12.00;99.90;;;;;;5013183;28;20065;-73
2023/03/17 01:31:58;;;;;;;1999.90;999.90;;;11.90;99.90;;;;;;5013424;28;20444;-72
2023/03/17 01:34:24;;;;;;;1999.90;999.90;;;11.90;99.90;;;;;;5013382;28;20420;-79
2023/03/17 01:36:49;;;;;;;1999.90;999.90;;;11.90;99.90;;;;;;5013169;28;20029;-79
2023/03/17 01:39:15;;;;;;;1999.90;999.90;;;11.90;99.90;;;;;;5013343;28;20030;-79
2023/03/17 01:41:41;;;;;;;1999.90;999.90;;;11.90;99.90;;;;;;5028187;28;20026;-79
2023/03/17 01:44:14;;;;;;;1999.90;999.90;;;11.90;99.90;;;;;;5032902;28;20026;-79
2023/03/17 01:46:40;;;;;;;1999.90;999.90;;;11.90;99.90;;;;;;5020364;28;20112;-72
2023/03/17 01:49:18;;;;;;;1999.90;999.90;;;11.90;99.90;;;;;;5013006;28;20072;-79
2023/03/17 01:52:00;;;;;;;1999.90;999.90;;;11.90;99.90;;;;;;5013126;28;20082;-79
2023/03/17 01:54:33;;;;;;;1999.90;999.90;;;11.80;99.90;;;;;;5012971;28;20500;-79
2023/03/17 01:57:10;;;;;;;1999.90;999.90;;;11.80;99.90;;;;;;5013094;28;20021;-79
2023/03/17 01:59:42;;;;;;;1999.90;999.90;;;11.80;99.90;;;;;;5013102;28;20060;-72
2023/03/17 02:02:11;;;;;;;1999.90;999.90;;;11.80;99.90;;;;;;5012864;28;20101;-72
2023/03/17 02:04:39;;;;;;;1999.90;999.90;;;11.80;99.90;;;;;;5013104;28;20544;-80
2023/03/17 02:07:04;;;;;;;1999.90;999.90;;;11.80;99.90;;;;;;5012732;28;20017;-80
2023/03/17 02:09:31;;;;;;;1999.90;999.90;;;11.80;99.90;;;;;;5012852;28;20443;-72
2023/03/17 02:11:59;;;;;;;1999.90;999.90;;;11.70;99.90;;;;;;5012999;28;20021;-72
2023/03/17 02:14:25;;;;;;;1999.90;999.90;;;11.80;99.90;;;;;;5000633;28;20026;-79
2023/03/17 02:16:51;;;;;;;1999.90;999.90;;;11.70;99.90;;;;;;5012869;28;20034;-72
2023/03/17 02:19:17;;;;;;;1999.90;999.90;;;11.70;99.90;;;;;;5015770;28;20034;-73
2023/03/17 02:21:48;;;;;;;1999.90;999.90;;;11.70;99.90;;;;;;5016806;28;20021;-79
2023/03/17 02:24:30;;;;;;;1999.90;999.90;;;11.70;99.90;;;;;;5016803;28;20563;-72
2023/03/17 02:27:02;;;;;;;1999.90;999.90;;;11.70;99.90;;;;;;5016759;28;20489;-79
2023/03/17 02:29:30;;;;;;;1999.90;999.90;;;11.70;99.90;;;;;;5016664;28;20040;-79
2023/03/17 02:31:55;;;;;;;1999.90;999.90;;;11.60;99.90;;;;;;5016568;28;20394;-72
2023/03/17 02:34:21;;;;;;;1999.90;999.90;;;11.70;99.90;;;;;;5016131;28;20032;-73
2023/03/17 02:36:46;;;;;;;1999.90;999.90;;;11.70;99.90;;;;;;5016539;28;20029;-72
2023/03/17 02:39:12;;;;;;;1999.90;999.90;;;11.70;99.90;;;;;;5016370;28;20029;-72
2023/03/17 02:41:38;;;;;;;1999.90;999.90;;;11.70;99.90;;;;;;5031337;28;20055;-79
2023/03/17 02:44:04;;;;;;;1999.90;999.90;;;11.70;99.90;;;;;;5035458;28;20438;-79
2023/03/17 02:46:29;;;;;;;1999.90;999.90;;;11.70;99.90;;;;;;5025165;28;20026;-79
2023/03/17 02:48:55;;;;;;;1999.90;999.90;;;11.70;99.90;;;;;;5015958;28;20058;-72
2023/03/17 02:51:21;;;;;;;1999.90;999.90;;;11.70;99.90;;;;;;5015057;28;20159;-72
2023/03/17 02:53:47;;;;;;;1999.90;999.90;;;11.60;99.90;;;;;;5016048;28;20040;-79
2023/03/17 02:56:13;;;;;;;1999.90;999.90;;;11.60;99.90;;;;;;5015870;28;20050;-79
2023/03/17 02:58:39;;;;;;;1999.90;999.90;;;11.60;99.90;;;;;;5016070;28;20072;-79
2023/03/17 03:01:05;;;;;;;1999.90;999.90;;;11.50;99.90;;;;;;5016199;28;20088;-72
2023/03/17 03:03:30;;;;;;;1999.90;999.90;;;11.50;99.90;;;;;;5015838;28;20104;-72
2023/03/17 03:05:57;;;;;;;1999.90;999.90;;;11.50;99.90;;;;;;5014778;28;20014;-79
2023/03/17 03:08:23;;;;;;;1999.90;999.90;;;11.50;99.90;;;;;;5015943;28;20022;-72
2023/03/17 03:10:49;;;;;;;1999.90;999.90;;;11.50;99.90;;;;;;5015832;28;20030;-79
2023/03/17 03:13:15;;;;;;;1999.90;999.90;;;11.50;99.90;;;;;;5011895;28;20500;-72
2023/03/17 03:15:42;;;;;;;1999.90;999.90;;;11.50;99.90;;;;;;5007357;28;20036;-72
2023/03/17 03:18:07;;;;;;;1999.90;999.90;;;11.50;99.90;;;;;;5015974;28;20385;-79
2023/03/17 03:20:33;;;;;;;1999.90;999.90;;;11.50;99.90;;;;;;5015668;28;20036;-79
2023/03/17 03:22:59;;;;;;;1999.90;999.90;;;11.50;99.90;;;;;;5015409;28;20034;-72
2023/03/17 03:25:24;;;;;;;1999.90;999.90;;;11.50;99.90;;;;;;5015676;28;20026;-79
2023/03/17 03:27:50;;;;;;;1999.90;999.90;;;11.50;99.90;;;;;;5015442;28;20477;-72
2023/03/17 03:30:16;;;;;;;1999.90;999.90;;;11.50;99.90;;;;;;5014957;28;20076;-79
2023/03/17 03:32:41;;;;;;;1999.90;999.90;;;11.50;99.90;;;;;;5015473;28;20480;-79
2023/03/17 03:35:07;;;;;;;1999.90;999.90;;;11.50;99.90;;;;;;5015485;28;20025;-79
2023/03/17 03:37:33;;;;;;;1999.90;999.90;;;11.40;99.90;;;;;;5015080;28;20400;-79
2023/03/17 03:39:59;;;;;;;1999.90;999.90;;;11.40;99.90;;;;;;5017087;28;20069;-72
2023/03/17 03:42:25;;;;;;;1999.90;999.90;;;11.40;99.90;;;;;;5035247;28;20018;-79
2023/03/17 03:44:51;;;;;;;1999.90;999.90;;;11.40;99.90;;;;;;5034461;28;20052;-72
2023/03/17 03:47:17;;;;;;;1999.90;999.90;;;11.40;99.90;;;;;;5017235;28;20049;-72
2023/03/17 03:49:43;;;;;;;1999.90;999.90;;;11.40;99.90;;;;;;5015021;28;20036;-79
2023/03/17 03:52:08;;;;;;;1999.90;999.90;;;11.40;99.90;;;;;;5015394;28;20097;-79
2023/03/17 03:54:34;;;;;;;1999.90;999.90;;;11.30;99.90;;;;;;5015098;28;20026;-72
2023/03/17 03:56:59;;;;;;;1999.90;999.90;;;11.30;99.90;;;;;;5015371;28;20105;-79
2023/03/17 03:59:25;;;;;;;1999.90;999.90;;;11.30;99.90;;;;;;5015223;28;20496;-79
2023/03/17 04:01:51;;;;;;;1999.90;999.90;;;11.30;99.90;;;;;;5014875;28;20062;-79
2023/03/17 04:04:16;;;;;;;1999.90;999.90;;;11.30;99.90;;;;;;5014845;28;20030;-79
2023/03/17 04:06:43;;;;;;;1999.90;999.90;;;11.30;99.90;;;;;;5014824;28;20026;-73
2023/03/17 04:09:09;;;;;;;1999.90;999.90;;;11.30;99.90;;;;;;5014815;28;20071;-72
2023/03/17 04:11:34;;;;;;;1999.90;999.90;;;11.20;99.90;;;;;;5014568;28;20100;-78
2023/03/17 04:14:00;;;;;;;1999.90;999.90;;;11.20;99.90;;;;;;5004811;28;20022;-79
2023/03/17 04:16:26;;;;;;;1999.90;999.90;;;11.10;99.90;;;;;;5012030;28;20025;-79
2023/03/17 04:18:51;;;;;;;1999.90;999.90;;;11.00;99.90;;;;;;5014309;28;20112;-72
2023/03/17 04:21:17;;;;;;;1999.90;999.90;;;11.00;99.90;;;;;;5046395;28;20030;-72
2023/03/17 04:23:44;;;;;;;1999.90;999.90;;;11.00;99.90;;;;;;5014431;28;20113;-72
2023/03/17 04:26:11;;;;;;;1999.90;999.90;;;11.00;99.90;;;;;;5014419;28;20021;-80
2023/03/17 04:28:36;;;;;;;1999.90;999.90;;;11.00;99.90;;;;;;5014641;28;20072;-79
2023/03/17 04:31:02;;;;;;;1999.90;999.90;;;11.00;99.90;;;;;;5014429;28;20026;-72
2023/03/17 04:33:28;;;;;;;1999.90;999.90;;;11.00;99.90;;;;;;5014333;28;20021;-72
2023/03/17 04:35:53;;;;;;;1999.90;999.90;;;10.90;99.90;;;;;;5014494;28;20078;-79
2023/03/17 04:38:19;;;;;;;1999.90;999.90;;;10.90;99.90;;;;;;5013914;28;20037;-80
2023/03/17 04:40:45;;;;;;;1999.90;999.90;;;10.80;99.90;;;;;;5021909;28;20032;-79
2023/03/17 04:43:11;;;;;;;1999.90;999.90;;;10.70;99.90;;;;;;5033070;28;20021;-72
2023/03/17 04:45:36;;;;;;;1999.90;999.90;;;10.70;99.90;;;;;;5029084;28;20018;-79
2023/03/17 04:48:02;;;;;;;1999.90;999.90;;;10.60;99.90;;;;;;5013887;28;20413;-73
2023/03/17 04:50:28;;;;;;;1999.90;999.90;;;10.50;99.90;;;;;;5013911;28;20504;-79
2023/03/17 04:52:53;;;;;;;1999.90;999.90;;;10.50;99.90;;;;;;5014123;28;20033;-79
2023/03/17 04:55:19;;;;;;;1999.90;999.90;;;10.40;99.90;;;;;;5014320;28;20033;-79
2023/03/17 04:57:46;;;;;;;1999.90;999.90;;;10.40;99.90;;;;;;5013883;28;20502;-72
2023/03/17 05:00:14;;;;;;;1999.90;999.90;;;10.50;99.90;;;;;;5013737;28;20507;-72
2023/03/17 05:02:39;;;;;;;1999.90;999.90;;;10.50;99.90;;;;;;5013891;28;20052;-72
2023/03/17 05:05:05;;;;;;;1999.90;999.90;;;10.60;99.90;;;;;;5012517;28;20104;-79
2023/03/17 05:07:31;;;;;;;1999.90;999.90;;;10.60;99.90;;;;;;5013641;28;20523;-79
2023/03/17 05:09:56;;;;;;;1999.90;999.90;;;10.60;99.90;;;;;;5013651;28;20025;-79
2023/03/17 05:12:22;;;;;;;1999.90;999.90;;;10.60;99.90;;;;;;5013676;28;20053;-72
2023/03/17 05:14:48;;;;;;;1999.90;999.90;;;10.50;99.90;;;;;;5001487;28;20026;-72
2023/03/17 05:17:13;;;;;;;1999.90;999.90;;;10.50;99.90;;;;;;5013573;28;20108;-79
2023/03/17 05:19:39;;;;;;;1999.90;999.90;;;10.60;99.90;;;;;;5013279;28;20037;-79
2023/03/17 05:22:05;;;;;;;1999.90;999.90;;;10.80;99.90;;;;;;5013817;28;20057;-72
2023/03/17 05:24:30;;;;;;;1999.90;999.90;;;11.00;99.90;;;;;;5013338;28;20054;-72
2023/03/17 05:26:56;;;;;;;1999.90;999.90;;;11.10;99.90;;;;;;5013540;28;20421;-72
2023/03/17 05:29:22;;;;;;;1999.90;999.90;;;11.10;99.90;;;;;;5013359;28;20026;-78
2023/03/17 05:31:47;;;;;;;1999.90;999.90;;;11.10;99.90;;;;;;5013349;28;20123;-79
2023/03/17 05:34:14;;;;;;;1999.90;999.90;;;11.10;99.90;;;;;;5013358;28;20193;-79
2023/03/17 05:36:40;;;;;;;1999.90;999.90;;;11.20;99.90;;;;;;5013298;28;20022;-72
2023/03/17 05:39:06;;;;;;;1999.90;999.90;;;11.20;99.90;;;;;;5013527;28;20038;-72
2023/03/17 05:41:32;;;;;;;1999.90;999.90;;;11.20;99.90;;;;;;5027441;28;20388;-79
2023/03/17 05:43:58;;;;;;;1999.90;999.90;;;11.10;99.90;;;;;;5032378;28;20025;-79
2023/03/17 05:46:24;;;;;;;1999.90;999.90;;;11.20;99.90;;;;;;5022247;28;20038;-79
2023/03/17 05:48:49;;;;;;;1999.90;999.90;;;11.20;99.90;;;;;;5012883;28;20050;-72
2023/03/17 05:51:15;;;;;;;1999.90;999.90;;;11.20;99.90;;;;;;5013054;28;20053;-79
2023/03/17 05:53:41;;;;;;;1999.90;999.90;;;11.20;99.90;;;;;;5012638;28;20026;-72
2023/03/17 05:56:08;;;;;;;1999.90;999.90;;;11.30;99.90;;;;;;5013333;28;20034;-79
2023/03/17 05:58:33;;;;;;;1999.90;999.90;;;11.30;99.90;;;;;;5020076;28;20028;-79
2023/03/17 06:00:59;;;;;;;1999.90;999.90;;;11.40;99.90;;;;;;5012231;28;20026;-80
2023/03/17 06:03:25;;;;;;;1999.90;999.90;;;11.30;99.90;;;;;;5012794;28;20072;-72
2023/03/17 06:05:51;;;;;;;1999.90;999.90;;;11.40;99.90;;;;;;5012645;28;20029;-72
2023/03/17 06:08:16;;;;;;;1999.90;999.90;;;11.40;99.90;;;;;;5012873;28;20018;-79
2023/03/17 06:10:42;;;;;;;1999.90;999.90;;;11.40;99.90;;;;;;5012670;28;20025;-79
2023/03/17 06:13:08;;;;;;;1999.90;999.90;;;11.40;99.90;;;;;;5009925;28;20036;-72
2023/03/17 06:15:35;;;;;;;1999.90;999.90;;;11.50;99.90;;;;;;5003241;28;20041;-79
2023/03/17 06:18:03;;;;;;;1999.90;999.90;;;11.50;99.90;;;;;;5013071;28;20022;-72
2023/03/17 06:20:30;;;;;;;1999.90;999.90;;;11.50;99.90;;;;;;5012737;28;20396;-80
2023/03/17 06:22:56;;;;;;;1999.90;999.90;;;11.50;99.90;;;;;;5012480;28;20026;-79
2023/03/17 06:25:21;;;;;;;1999.90;999.90;;;11.50;99.90;;;;;;5012581;28;20055;-72
2023/03/17 06:27:48;;;;;;;1999.90;999.90;;;11.50;99.90;;;;;;5015611;28;20017;-79
2023/03/17 06:30:13;;;;;;;1999.90;999.90;;;11.50;99.90;;;;;;5012441;28;20033;-78
2023/03/17 06:32:39;;;;;;;1999.90;999.90;;;11.50;99.90;;;;;;5013154;28;20029;-72
2023/03/17 06:35:06;;;;;;;1999.90;999.90;;;11.50;99.90;;;;;;5015978;28;20056;-79
2023/03/17 06:37:32;;;;;;;1999.90;999.90;;;11.50;99.90;;;;;;4992656;28;20053;-79
2023/03/17 06:39:59;;;;;;;1999.90;999.90;;;11.50;99.90;;;;;;5006701;28;20076;-72
2023/03/17 06:42:25;;;;;;;1999.90;999.90;;;11.50;99.90;;;;;;5031873;28;20045;-72
2023/03/17 06:44:51;;;;;;;1999.90;999.90;;;11.50;99.90;;;;;;5029404;28;20065;-73
2023/03/17 06:47:18;;;;;;;1999.90;999.90;;;11.50;99.90;;;;;;5012017;28;20074;-72
2023/03/17 06:49:44;;;;;;;1999.90;999.90;;;11.50;99.90;;;;;;5012740;28;20026;-79
2023/03/17 06:52:10;;;;;;;1999.90;999.90;;;11.60;99.90;;;;;;5032008;28;20072;-79
2023/03/17 06:54:36;;;;;;;1999.90;999.90;;;11.60;99.90;;;;;;5031883;28;20079;-79
2023/03/17 06:57:01;;;;;;;1999.90;999.90;;;11.60;99.90;;;;;;5031595;28;20484;-73
2023/03/17 06:59:29;;;;;;;1999.90;999.90;;;11.60;99.90;;;;;;5031668;28;20399;-79
2023/03/17 07:01:55;;;;;;;1999.90;999.90;;;11.60;99.90;;;;;;5031270;28;20514;-80
2023/03/17 07:04:20;;;;;;;1999.90;999.90;;;11.60;99.90;;;;;;5030289;28;20025;-79
2023/03/17 07:06:46;;;;;;;1999.90;999.90;;;11.60;99.90;;;;;;5035029;28;20029;-80
2023/03/17 07:09:12;;;;;;;1999.90;999.90;;;11.60;99.90;;;;;;5032101;28;20464;-73
2023/03/17 07:11:38;;;;;;;1999.90;999.90;;;11.70;99.90;;;;;;5017979;28;20072;-73
2023/03/17 07:14:04;;;;;;;1999.90;999.90;;;11.70;99.90;;;;;;5009558;28;20413;-80
2023/03/17 07:16:31;;;;;;;1999.90;999.90;;;11.70;99.90;;;;;;5013971;28;20026;-79
2023/03/17 07:18:57;;;;;;;1999.90;999.90;;;11.70;99.90;;;;;;5013817;28;20113;-80
2023/03/17 07:21:23;;;;;;;1999.90;999.90;;;11.70;99.90;;;;;;5013361;28;20110;-73
2023/03/17 07:23:48;;;;;;;1999.90;999.90;;;11.80;99.90;;;;;;5010368;28;20489;-73
2023/03/17 07:26:14;;;;;;;1999.90;999.90;;;11.80;99.90;;;;;;5015210;28;20025;-73
2023/03/17 07:28:39;;;;;;;1999.90;999.90;;;11.80;99.90;;;;;;5031128;28;20051;-73
2023/03/17 07:31:07;;;;;;;1999.90;999.90;;;11.80;99.90;;;;;;5010313;28;20022;-78
2023/03/17 07:33:33;;;;;;;1999.90;999.90;;;11.90;99.90;;;;;;5022580;28;20523;-73
2023/03/17 07:35:58;;;;;;;1999.90;999.90;;;11.90;99.90;;;;;;5015224;28;20025;-73
2023/03/17 07:38:24;;;;;;;1999.90;999.90;;;12.00;99.90;;;;;;5028005;28;20042;-80
2023/03/17 07:40:51;;;;;;;1999.90;999.90;;;12.00;99.90;;;;;;5013556;28;20057;-80
2023/03/17 07:43:17;;;;;;;1999.90;999.90;;;12.00;99.90;;;;;;5012232;28;20424;-79
2023/03/17 07:45:43;;;;;;;1999.90;999.90;;;12.00;99.90;;;;;;5012172;28;20034;-73
2023/03/17 07:48:09;;;;;;;1999.90;999.90;;;12.00;99.90;;;;;;5029750;28;20113;-73
2023/03/17 07:50:36;;;;;;;1999.90;999.90;;;12.00;99.90;;;;;;5011574;28;20029;-73
2023/03/17 07:53:02;;;;;;;1999.90;999.90;;;12.00;99.90;;;;;;5012622;28;20511;-73
2023/03/17 07:55:30;;;;;;;1999.90;999.90;;;12.00;99.90;;;;;;5006313;28;20030;-79
2023/03/17 07:57:56;;;;;;;1999.90;999.90;;;12.10;99.90;;;;;;5016864;28;20028;-73
2023/03/17 08:00:22;;;;;;;1999.90;999.90;;;12.20;99.90;;;;;;5007761;28;20027;-80
2023/03/17 08:02:49;;;;;;;1999.90;999.90;;;12.20;99.90;;;;;;5012242;28;20030;-73
2023/03/17 08:05:14;;;;;;;1999.90;999.90;;;12.20;99.90;;;;;;5012872;28;20037;-73
2023/03/17 08:07:40;;;;;;;1999.90;999.90;;;12.20;99.90;;;;;;5012536;28;20018;-80
2023/03/17 08:10:06;;;;;;;1999.90;999.90;;;12.20;99.90;;;;;;5017528;28;20092;-81
2023/03/17 08:12:33;;;;;;;1999.90;999.90;;;12.30;99.90;;;;;;5012938;28;20064;-75
2023/03/17 08:14:59;;;;;;;1999.90;999.90;;;12.40;99.90;;;;;;5009956;28;20041;-75
2023/03/17 08:17:26;;;;;;;1999.90;999.90;;;12.40;99.90;;;;;;5019259;28;20030;-75
2023/03/17 08:19:53;;;;;;;1999.90;999.90;;;12.50;99.90;;;;;;5008848;28;20477;-80
2023/03/17 08:22:18;;;;;;;1999.90;999.90;;;12.60;99.90;;;;;;5005699;28;20026;-74
2023/03/17 08:24:44;;;;;;;1999.90;999.90;;;12.70;99.90;;;;;;5011808;28;20044;-74
2023/03/17 08:27:10;;;;;;;1999.90;999.90;;;12.90;99.90;;;;;;5010859;28;20029;-74
2023/03/17 08:29:35;;;;;;;1999.90;999.90;;;13.00;99.90;;;;;;5013735;28;20087;-74
2023/03/17 08:32:01;;;;;;;1999.90;999.90;;;13.00;99.90;;;;;;5027814;28;20033;-81
2023/03/17 08:34:27;;;;;;;1999.90;999.90;;;13.10;99.90;;;;;;5017503;28;20940;-81
2023/03/17 08:36:52;;;;;;;1999.90;999.90;;;13.10;99.90;;;;;;5000300;28;20057;-80
2023/03/17 08:39:19;;;;;;;1999.90;999.90;;;13.20;99.90;;;;;;5012376;28;20037;-74
2023/03/17 08:41:45;;;;;;;1999.90;999.90;;;13.10;99.90;;;;;;5022495;28;20121;-75
2023/03/17 08:44:13;;;;;;;1999.90;999.90;;;13.20;99.90;;;;;;5013021;28;20061;-81
2023/03/17 08:46:39;;;;;;;1999.90;999.90;;;13.20;99.90;;;;;;5016534;28;20464;-74
2023/03/17 08:49:06;;;;;;;1999.90;999.90;;;13.40;99.90;;;;;;5031467;28;20029;-81
2023/03/17 08:51:34;;;;;;;1999.90;999.90;;;13.50;99.90;;;;;;5027340;28;20093;-80
2023/03/17 08:54:01;;;;;;;1999.90;999.90;;;13.90;99.90;;;;;;5009718;28;20091;-75
2023/03/17 08:56:27;;;;;;;1999.90;999.90;;;14.10;99.90;;;;;;5024536;28;20447;-75
2023/03/17 08:58:53;;;;;;;1999.90;999.90;;;14.10;99.90;;;;;;5020924;28;20033;-75
2023/03/17 09:01:20;;;;;;;1999.90;999.90;;;14.00;99.90;;;;;;5011659;28;20030;-74
2023/03/17 09:03:46;;;;;;;1999.90;999.90;;;14.00;99.90;;;;;;5004209;28;20072;-80
2023/03/17 09:06:13;;;;;;;1999.90;999.90;;;14.20;99.90;;;;;;5012016;28;20033;-74
2023/03/17 09:08:43;;;;;;;1999.90;999.90;;;14.10;99.90;;;;;;5019987;28;20084;-75
2023/03/17 09:11:19;;;;;;;1999.90;999.90;;;14.10;99.90;;;;;;5014768;28;20026;-81
2023/03/17 09:13:46;;;;;;;1999.90;999.90;;;14.20;99.90;;;;;;5012590;28;20034;-74
2023/03/17 09:16:13;;;;;;;1999.90;999.90;;;14.20;99.90;;;;;;5018670;28;20029;-80
2023/03/17 09:18:39;;;;;;;1999.90;999.90;;;14.00;99.90;;;;;;5011169;28;20034;-74
2023/03/17 09:21:05;;;;;;;1999.90;999.90;;;14.00;99.90;;;;;;5011643;28;20037;-74
2023/03/17 09:23:31;;;;;;;1999.90;999.90;;;14.10;99.90;;;;;;5014107;28;20029;-80
2023/03/17 09:25:57;;;;;;;1999.90;999.90;;;13.90;99.90;;;;;;5005732;28;20822;-80
2023/03/17 09:28:23;;;;;;;1999.90;999.90;;;13.90;99.90;;;;;;5019641;28;20165;-74
2023/03/17 09:30:49;;;;;;;1999.90;999.90;;;14.00;99.90;;;;;;5015384;28;20036;-74
2023/03/17 09:33:15;;;;;;;1999.90;999.90;;;14.00;99.90;;;;;;5010953;28;20037;-74
2023/03/17 09:35:41;;;;;;;1999.90;999.90;;;14.00;99.90;;;;;;5008615;28;20030;-79
2023/03/17 09:38:07;;;;;;;1999.90;999.90;;;14.30;99.90;;;;;;5009575;28;20040;-79
2023/03/17 09:40:43;;;;;;;1999.90;999.90;;;14.10;99.90;;;;;;5017097;28;20025;-80
2023/03/17 09:43:27;;;;;;;1999.90;999.90;;;14.10;99.90;;;;;;5012411;28;20044;-73
2023/03/17 09:45:54;;;;;;;1999.90;999.90;;;14.10;99.90;;;;;;5012406;28;20052;-74
2023/03/17 09:48:57;;;;;;;1999.90;999.90;;;14.30;99.90;;;;;;5028859;28;20038;-80
2023/03/17 09:51:22;;;;;;;1999.90;999.90;;;14.40;99.90;;;;;;5014458;28;20397;-80
2023/03/17 09:54:01;;;;;;;1999.90;999.90;;;14.70;99.90;;;;;;5009835;28;20037;-74
2023/03/17 09:56:32;;;;;;;1999.90;999.90;;;14.90;99.90;;;;;;5009732;28;20026;-80
2023/03/17 09:59:04;;;;;;;1999.90;999.90;;;14.90;99.90;;;;;;5005323;28;20033;-73
2023/03/17 10:01:29;;;;;;;1999.90;999.90;;;15.30;99.90;;;;;;5008307;28;20057;-74
2023/03/17 10:03:55;;;;;;;1999.90;999.90;;;15.50;99.90;;;;;;5008504;28;20073;-74
2023/03/17 10:06:51;;;;;;;1999.90;999.90;;;15.10;99.90;;;;;;5040927;28;20030;-79
2023/03/17 10:09:22;;;;;;;1999.90;999.90;;;14.90;99.90;;;;;;5021347;28;20080;-74
2023/03/17 10:12:02;;;;;;;1999.90;999.90;;;15.00;99.90;;;;;;5014463;28;20054;-74
2023/03/17 10:14:54;;;;;;;1999.90;999.90;;;14.80;99.90;;;;;;5005202;28;20069;-82
2023/03/17 10:17:24;;;;;;;1999.90;999.90;;;15.00;99.90;;;;;;5015305;28;20037;-76
2023/03/17 10:19:53;;;;;;;1999.90;999.90;;;15.00;99.90;;;;;;5009955;28;20033;-76
2023/03/17 10:22:27;;;;;;;1999.90;999.90;;;15.00;99.90;;;;;;5019051;28;20030;-76
2023/03/17 10:25:01;;;;;;;1999.90;999.90;;;14.80;99.90;;;;;;5020233;28;20021;-75
2023/03/17 10:27:28;;;;;;;1999.90;999.90;;;14.80;99.90;;;;;;5017223;28;20025;-80
2023/03/17 10:29:55;;;;;;;1999.90;999.90;;;14.80;99.90;;;;;;5016562;28;20397;-82
2023/03/17 10:32:21;;;;;;;1999.90;999.90;;;14.80;99.90;;;;;;5022972;28;20030;-83
2023/03/17 10:34:47;;;;;;;1999.90;999.90;;;14.80;99.90;;;;;;5025998;28;20389;-76
2023/03/17 10:37:16;;;;;;;1999.90;999.90;;;15.10;99.90;;;;;;5016622;28;20057;-76
2023/03/17 10:39:54;;;;;;;1999.90;999.90;;;15.20;99.90;;;;;;5013368;28;20392;-76
2023/03/17 10:42:24;;;;;;;1999.90;999.90;;;15.10;99.90;;;;;;5013701;28;20029;-76
2023/03/17 10:44:55;;;;;;;1999.90;999.90;;;15.00;99.90;;;;;;5028826;28;20504;-76
2023/03/17 10:47:25;;;;;;;1999.90;999.90;;;14.80;99.90;;;;;;5007726;28;20050;-76
2023/03/17 10:49:51;;;;;;;1999.90;999.90;;;14.80;99.90;;;;;;5014066;28;20033;-75
2023/03/17 10:52:28;;;;;;;1999.90;999.90;;;14.70;99.90;;;;;;5027068;28;20040;-76
2023/03/17 10:54:54;;;;;;;1999.90;999.90;;;14.50;99.90;;;;;;5012757;28;20097;-76
2023/03/17 10:57:20;;;;;;;1999.90;999.90;;;14.40;99.90;;;;;;5014069;28;20121;-81
2023/03/17 10:59:52;;;;;;;1999.90;999.90;;;14.50;99.90;;;;;;5015777;28;20030;-82
2023/03/17 11:02:23;;;;;;;1999.90;999.90;;;14.70;99.90;;;;;;5006012;28;20034;-75
2023/03/17 11:04:52;;;;;;;1999.90;999.90;;;14.70;99.90;;;;;;5007290;28;20030;-76
2023/03/17 11:07:20;;;;;;;1999.90;999.90;;;14.60;99.90;;;;;;5031831;28;20029;-81
2023/03/17 11:09:51;;;;;;;1999.90;999.90;;;14.40;99.90;;;;;;5019784;28;20443;-82
2023/03/17 11:12:35;;;;;;;1999.90;999.90;;;14.50;99.90;;;;;;5011998;28;20061;-81
2023/03/17 11:15:04;;;;;;;1999.90;999.90;;;14.60;99.90;;;;;;5010522;28;20022;-75
2023/03/17 11:17:56;;;;;;;1999.90;999.90;;;14.70;99.90;;;;;;5012613;28;20432;-75
2023/03/17 11:20:43;;;;;;;1999.90;999.90;;;14.70;99.90;;;;;;5012356;28;20034;-81
2023/03/17 11:23:28;;;;;;;1999.90;999.90;;;14.60;99.90;;;;;;5011833;28;20064;-81
2023/03/17 11:26:21;;;;;;;1999.90;999.90;;;14.80;99.90;;;;;;5055183;28;20456;-81
2023/03/17 11:29:05;;;;;;;1999.90;999.90;;;14.90;99.90;;;;;;5049723;28;20148;-75
2023/03/17 11:31:37;;;;;;;1999.90;999.90;;;14.80;99.90;;;;;;5020924;28;20484;-75
2023/03/17 11:34:07;;;;;;;1999.90;999.90;;;14.60;99.90;;;;;;5012550;28;20042;-75
2023/03/17 11:36:36;;;;;;;1999.90;999.90;;;14.50;99.90;;;;;;5017887;28;20112;-81
2023/03/17 11:39:14;;;;;;;1999.90;999.90;;;14.30;99.90;;;;;;5007548;28;20041;-75
2023/03/17 11:41:40;;;;;;;1999.90;999.90;;;14.40;99.90;;;;;;5020411;28;20056;-75
2023/03/17 11:44:27;;;;;;;1999.90;999.90;;;15.00;99.90;;;;;;5023100;28;20056;-81
2023/03/17 11:46:58;;;;;;;1999.90;999.90;;;15.40;99.90;;;;;;5016348;28;20146;-81
2023/03/17 11:49:34;;;;;;;1999.90;999.90;;;14.90;99.90;;;;;;5012340;28;20038;-81
2023/03/17 11:52:03;;;;;;;1999.90;999.90;;;15.10;99.90;;;;;;5012076;28;20125;-81
2023/03/17 11:54:44;;;;;;;1999.90;999.90;;;15.10;99.90;;;;;;5018915;28;20055;-75
2023/03/17 11:57:39;;;;;;;1999.90;999.90;;;14.90;99.90;;;;;;5005792;28;20109;-75
2023/03/17 12:00:15;;;;;;;1999.90;999.90;;;14.50;99.90;;;;;;5018659;28;20567;-80
2023/03/17 12:02:59;;;;;;;1999.90;999.90;;;14.10;99.90;;;;;;5012724;28;20108;-82